Historique des stations

Station météo de Blancafort

Altitude de la station : 210 m







Données météorologiques pour le 04/12/2022
Date
Heure
Températures Humidité Point de rosée Vitesse
du vent
Direction Rafales Windchill Pression Pluviométrie
Cumul
Date
Heure
Températures Humidité Point de rosée Vitesse
du vent
Direction Rafales Windchill Pression Pluviométrie
Cumul
04/12/2022 15:304.7 °C92 %3.5 °C1 km/hNO3 km/h4.71010 hPa0.2 mm
04/12/2022 15:104.7 °C92 %3.5 °C1 km/hNO3 km/h4.71010 hPa0.2 mm
04/12/2022 15:004.7 °C92 %3.5 °C-NO5 km/h4.71010 hPa0.2 mm
04/12/2022 14:404.6 °C91 %3.3 °C-NO5 km/h4.61010 hPa0.2 mm
04/12/2022 14:304.7 °C91 %3.3 °C-NO3 km/h4.71010 hPa0.2 mm
04/12/2022 14:104.6 °C91 %3.2 °C-NNO2 km/h4.61010 hPa0.2 mm
04/12/2022 14:004.4 °C91 %3.1 °C-NO5 km/h4.41010 hPa0.2 mm
04/12/2022 13:404.3 °C91 %3.0 °C-NO3 km/h4.31010 hPa0.2 mm
04/12/2022 13:304.4 °C91 %3.1 °C1 km/hNO3 km/h4.41010 hPa0.2 mm
04/12/2022 13:104.4 °C92 %3.3 °C1 km/hNNO5 km/h4.41010 hPa0.2 mm
04/12/2022 13:004.3 °C91 %3.0 °C2 km/h6 km/h4.31010 hPa0.2 mm
04/12/2022 12:404.3 °C92 %3.1 °C2 km/hNO5 km/h4.31010 hPa0.2 mm
04/12/2022 12:304.2 °C92 %3.0 °C2 km/hNO5 km/h4.21010 hPa0.2 mm
04/12/2022 12:104.2 °C93 %3.1 °C2 km/hNO5 km/h4.21010 hPa0.2 mm
04/12/2022 12:004.1 °C93 %3.0 °C2 km/hNO6 km/h4.11010 hPa0.2 mm
04/12/2022 11:403.9 °C94 %3.1 °C2 km/hNO5 km/h3.91010 hPa0.2 mm
04/12/2022 11:303.8 °C94 %3.0 °C2 km/h5 km/h3.81010 hPa0.2 mm
04/12/2022 11:103.6 °C94 %2.7 °C3 km/hNO6 km/h3.61010 hPa0.2 mm
04/12/2022 11:003.4 °C94 %2.5 °C3 km/hONO6 km/h3.41010 hPa0.2 mm
04/12/2022 10:403.2 °C95 %2.4 °C3 km/hNO6 km/h3.21010 hPa0.2 mm
04/12/2022 10:303.0 °C95 %2.3 °C3 km/hONO8 km/h3.01010 hPa0.2 mm
04/12/2022 10:102.9 °C95 %2.2 °C3 km/hNO6 km/h2.91010 hPa0.2 mm
04/12/2022 10:002.8 °C95 %2.1 °C2 km/hONO6 km/h2.81010 hPa0.2 mm
04/12/2022 09:402.7 °C95 %1.9 °C2 km/hONO6 km/h2.71010 hPa0.2 mm
04/12/2022 09:302.6 °C95 %1.8 °C1 km/hNO6 km/h2.61010 hPa0.2 mm
04/12/2022 09:102.5 °C95 %1.8 °C2 km/hNNO3 km/h2.51010 hPa0.2 mm
04/12/2022 09:002.4 °C95 %1.7 °C3 km/hNNO8 km/h2.41010 hPa0.2 mm
04/12/2022 08:402.3 °C95 %1.6 °C3 km/hNO6 km/h2.31010 hPa0.2 mm
04/12/2022 08:302.3 °C95 %1.6 °C3 km/hONO10 km/h2.31010 hPa0.2 mm
04/12/2022 08:102.3 °C95 %1.6 °C2 km/h8 km/h2.31010 hPa0.2 mm
04/12/2022 08:002.3 °C95 %1.6 °C2 km/hNO6 km/h2.31010 hPa0.2 mm
04/12/2022 07:402.3 °C95 %1.6 °C2 km/hONO5 km/h2.31010 hPa0.2 mm
04/12/2022 07:302.3 °C95 %1.6 °C2 km/hONO5 km/h2.31010 hPa0.2 mm
04/12/2022 07:102.3 °C95 %1.6 °C1 km/hNO3 km/h2.31010 hPa0.2 mm
04/12/2022 07:002.3 °C94 %1.5 °C2 km/hNO3 km/h2.31010 hPa0.2 mm
04/12/2022 06:402.4 °C94 %1.5 °C2 km/hNO3 km/h2.41010 hPa0.2 mm
04/12/2022 06:302.3 °C94 %1.5 °C2 km/hNNO5 km/h2.31010 hPa0.2 mm
04/12/2022 06:102.3 °C94 %1.5 °C3 km/hNO8 km/h2.31010 hPa0.2 mm
04/12/2022 06:002.4 °C93 %1.4 °C3 km/hNO8 km/h2.41010 hPa0.0 mm
04/12/2022 05:402.3 °C93 %1.3 °C4 km/h10 km/h2.31010 hPa0.0 mm
04/12/2022 05:302.3 °C93 %1.3 °C4 km/hNO6 km/h2.31009 hPa0.0 mm
04/12/2022 05:102.3 °C93 %1.3 °C5 km/hONO11 km/h2.31009 hPa0.0 mm
04/12/2022 05:002.3 °C93 %1.3 °C4 km/hONO13 km/h2.31010 hPa0.0 mm
04/12/2022 04:402.3 °C93 %1.3 °C4 km/hONO10 km/h2.31009 hPa0.0 mm
04/12/2022 04:302.3 °C93 %1.3 °C4 km/hONO11 km/h2.31009 hPa0.0 mm
04/12/2022 04:102.3 °C93 %1.3 °C4 km/hONO11 km/h2.31009 hPa0.0 mm
04/12/2022 04:002.3 °C93 %1.3 °C4 km/hONO15 km/h2.31009 hPa0.0 mm
04/12/2022 03:402.3 °C93 %1.3 °C4 km/hONO11 km/h2.31009 hPa0.0 mm
04/12/2022 03:302.3 °C92 %1.2 °C4 km/hONO11 km/h2.31010 hPa0.0 mm
04/12/2022 03:102.4 °C92 %1.3 °C4 km/hONO10 km/h2.41010 hPa0.0 mm
04/12/2022 03:002.5 °C92 %1.3 °C4 km/hONO10 km/h2.51010 hPa0.0 mm
04/12/2022 02:402.5 °C92 %1.3 °C4 km/hONO11 km/h2.51010 hPa0.0 mm
04/12/2022 02:302.5 °C92 %1.3 °C3 km/hONO6 km/h2.51010 hPa0.0 mm
04/12/2022 02:102.6 °C91 %1.2 °C3 km/hNO6 km/h2.61010 hPa0.0 mm
04/12/2022 02:002.6 °C91 %1.3 °C3 km/hONO10 km/h2.61010 hPa0.0 mm
04/12/2022 01:402.6 °C90 %1.1 °C4 km/hONO8 km/h2.61010 hPa0.0 mm
04/12/2022 01:302.6 °C91 %1.2 °C4 km/hONO5 km/h2.61011 hPa0.0 mm
04/12/2022 01:102.6 °C90 %1.1 °C4 km/hONO8 km/h2.61011 hPa0.0 mm
04/12/2022 00:402.6 °C90 %1.1 °C5 km/hONO13 km/h2.61011 hPa0.6 mm
04/12/2022 00:302.6 °C90 %1.1 °C5 km/hONO11 km/h2.61011 hPa0.6 mm
04/12/2022 00:102.6 °C90 %1.1 °C5 km/hONO13 km/h2.61011 hPa0.6 mm
04/12/2022 00:002.6 °C90 %1.1 °C5 km/hONO10 km/h2.61011 hPa0.6 mm


Minima :

Température : 2.3 °C
Humidité : 90 %
Point de rosée : 1.1 °C
Vent moyen : 1 km/h
Windchill : 2.3
Pression atm. : 1009 hPa
Maxima :

Température : 4.7 °C
Humidité : 95 %
Point de rosée : 3.5 °C
Vent moyen : 5 km/h
Windchill : 4.7
Pression atm. : 1011 hPa
Rafales max : 15 km/h
Cumul de pluie sur 24H : 0.6 mm

BLANCAFORT est une commune du département Cher (18).
La station météorologique du réseau de l'association la plus proche de Blancafort est celle de Aubigny-sur-Nère
Site du propriétaire de la station : https://fr.wikipedia.org/wiki/Blancafort_(Cher)



Icône Facebook Association Météo Centre Icône Twitter Association Météo Centre Icône Chaîne Youtube Association Météo Centre Icône contact Association Météo Centre Icône Insta Association Météo Centre